Time;durP1;ratioP1;P1;durP2;ratioP2;P2;SDS_P1;SDS_P2;PMS_P1;PMS_P2;Temp;Humidity;BMP_temperature;BMP_pressure;BME280_temperature;BME280_humidity;BME280_pressure;Samples;Min_cycle;Max_cycle;Signal;HPM_P1;HPM_P2
2022/09/11 00:01:08;;;;;;;4.87;2.33;;;22.50;83.40;;;;;;4989021;28;20215;-70
2022/09/11 00:03:35;;;;;;;6.90;2.43;;;22.40;83.80;;;;;;4990757;28;20201;-70
2022/09/11 00:06:07;;;;;;;7.07;2.20;;;22.30;84.10;;;;;;4970712;28;20241;-70
2022/09/11 00:08:34;;;;;;;9.03;2.00;;;22.30;84.60;;;;;;4992335;28;20398;-70
2022/09/11 00:11:09;;;;;;;8.10;2.30;;;22.30;85.10;;;;;;4971739;28;20232;-70
2022/09/11 00:13:39;;;;;;;8.00;2.13;;;22.30;85.40;;;;;;4990189;28;20209;-70
2022/09/11 00:16:16;;;;;;;7.53;2.20;;;22.30;85.60;;;;;;4990260;28;20228;-70
2022/09/11 00:18:45;;;;;;;7.87;2.20;;;22.30;85.70;;;;;;4964617;28;20212;-70
2022/09/11 00:21:12;;;;;;;4.63;2.70;;;22.30;85.80;;;;;;4990068;28;20200;-70
2022/09/11 00:23:39;;;;;;;5.30;2.40;;;22.30;85.80;;;;;;4991792;28;20220;-70
2022/09/11 00:26:06;;;;;;;5.73;2.07;;;22.30;85.90;;;;;;4989484;28;20287;-70
2022/09/11 00:28:33;;;;;;;2.77;2.50;;;22.40;85.70;;;;;;4988460;28;20513;-70
2022/09/11 00:31:11;;;;;;;6.57;2.90;;;22.30;85.50;;;;;;4991838;28;20258;-70
2022/09/11 00:33:38;;;;;;;5.87;3.20;;;22.30;85.50;;;;;;4990780;28;20200;-70
2022/09/11 00:36:11;;;;;;;4.70;2.90;;;22.30;85.40;;;;;;4991044;28;20204;-70
2022/09/11 00:38:38;;;;;;;8.17;3.30;;;22.20;85.30;;;;;;4972642;28;20598;-69
2022/09/11 00:41:11;;;;;;;6.57;3.40;;;22.20;85.30;;;;;;4974031;28;20562;-69
2022/09/11 00:44:11;;;;;;;7.03;3.13;;;22.10;85.30;;;;;;4974630;28;20213;-70
2022/09/11 00:46:47;;;;;;;6.13;3.37;;;22.10;85.30;;;;;;4910326;28;20374;-70
2022/09/11 00:49:31;;;;;;;6.43;3.80;;;22.10;85.10;;;;;;4972514;28;20236;-69
2022/09/11 00:52:07;;;;;;;5.03;3.30;;;22.00;84.80;;;;;;4991213;28;20196;-70
2022/09/11 00:54:40;;;;;;;5.07;4.13;;;22.00;84.80;;;;;;4990260;28;20302;-70
2022/09/11 00:57:08;;;;;;;6.10;3.77;;;21.90;84.50;;;;;;4983601;28;20216;-70
2022/09/11 00:59:40;;;;;;;6.37;3.83;;;21.90;84.30;;;;;;4990690;28;20228;-70
2022/09/11 01:02:11;;;;;;;4.33;3.83;;;21.90;83.20;;;;;;4974482;28;20204;-70
2022/09/11 01:04:50;;;;;;;7.27;4.70;;;21.80;82.60;;;;;;4991550;28;20200;-70
2022/09/11 01:07:18;;;;;;;6.53;3.67;;;21.80;82.00;;;;;;4975206;28;20231;-70
2022/09/11 01:09:46;;;;;;;5.73;4.40;;;21.70;81.50;;;;;;4986447;28;20200;-70
2022/09/11 01:12:28;;;;;;;5.83;4.03;;;21.70;81.30;;;;;;4972217;28;20210;-70
2022/09/11 01:15:05;;;;;;;4.13;3.30;;;21.60;81.50;;;;;;4986816;28;20192;-70
2022/09/11 01:18:05;;;;;;;4.90;3.47;;;21.50;81.60;;;;;;4974444;28;20219;-70
2022/09/11 01:20:50;;;;;;;4.00;2.80;;;21.50;81.00;;;;;;4972467;28;20227;-70
2022/09/11 01:23:30;;;;;;;4.13;3.43;;;21.50;80.00;;;;;;4976188;28;20220;-70
2022/09/11 01:26:25;;;;;;;4.43;2.97;;;21.40;79.60;;;;;;4975508;28;20231;-70
2022/09/11 01:29:16;;;;;;;4.80;3.00;;;21.40;79.50;;;;;;4983877;28;20284;-70
2022/09/11 01:31:57;;;;;;;3.03;2.50;;;21.40;78.50;;;;;;4989506;28;20201;-70
2022/09/11 01:34:44;;;;;;;2.97;2.47;;;21.30;77.70;;;;;;4976241;28;20266;-70
2022/09/11 01:37:34;;;;;;;2.40;1.90;;;21.30;78.10;;;;;;4971845;28;20282;-70
2022/09/11 01:40:09;;;;;;;2.77;1.90;;;21.20;77.30;;;;;;4973043;28;20738;-70
2022/09/11 01:42:42;;;;;;;3.93;3.00;;;21.20;77.40;;;;;;4972225;28;20218;-70
2022/09/11 01:45:12;;;;;;;4.00;2.17;;;21.20;77.00;;;;;;4989526;28;20219;-70
2022/09/11 01:47:42;;;;;;;2.50;2.30;;;21.20;77.00;;;;;;4974266;28;20625;-70
2022/09/11 01:50:13;;;;;;;3.80;2.40;;;21.20;77.10;;;;;;4988115;28;20213;-70
2022/09/11 01:52:57;;;;;;;6.50;1.87;;;21.10;76.70;;;;;;4973356;28;20781;-70
2022/09/11 01:55:34;;;;;;;4.87;1.73;;;21.10;76.30;;;;;;4985618;28;20242;-70
2022/09/11 01:58:14;;;;;;;2.30;1.50;;;21.00;76.20;;;;;;4973683;28;20215;-70
2022/09/11 02:00:48;;;;;;;2.87;1.53;;;21.00;76.00;;;;;;4974842;28;20222;-70
2022/09/11 02:03:21;;;;;;;4.83;1.53;;;21.00;76.20;;;;;;4988333;28;20209;-70
2022/09/11 02:05:53;;;;;;;1.57;1.13;;;20.90;75.90;;;;;;4971974;28;20211;-70
2022/09/11 02:08:35;;;;;;;2.53;1.10;;;20.90;76.00;;;;;;4974981;28;20258;-70
2022/09/11 02:11:06;;;;;;;1.30;1.17;;;20.90;75.70;;;;;;4988602;28;20696;-70
2022/09/11 02:14:20;;;;;;;3.60;1.23;;;20.90;75.70;;;;;;4969083;28;20218;-69
2022/09/11 02:17:11;;;;;;;1.37;1.00;;;20.90;75.50;;;;;;4952841;28;20310;-69
2022/09/11 02:19:40;;;;;;;0.93;0.80;;;20.80;75.50;;;;;;4974216;28;20210;-69
2022/09/11 02:22:07;;;;;;;4.10;0.97;;;20.80;75.70;;;;;;4972467;28;20211;-69
2022/09/11 02:24:36;;;;;;;1.30;0.80;;;20.80;75.60;;;;;;4972116;28;20208;-70
2022/09/11 02:27:08;;;;;;;4.83;1.00;;;20.70;75.80;;;;;;4973792;28;20231;-70
2022/09/11 02:29:35;;;;;;;0.90;0.90;;;20.70;76.00;;;;;;4956938;28;20734;-70
2022/09/11 02:32:03;;;;;;;2.60;1.00;;;20.70;76.10;;;;;;4967492;28;20275;-70
2022/09/11 02:34:34;;;;;;;0.93;0.93;;;20.70;76.20;;;;;;4988213;28;20690;-70
2022/09/11 02:37:28;;;;;;;2.83;1.07;;;20.70;76.30;;;;;;4989139;28;20228;-70
2022/09/11 02:40:06;;;;;;;1.37;0.87;;;20.70;76.50;;;;;;4971332;28;20204;-70
2022/09/11 02:42:34;;;;;;;1.23;0.90;;;20.60;76.60;;;;;;4972458;28;20300;-70
2022/09/11 02:45:27;;;;;;;1.83;0.93;;;20.60;76.80;;;;;;4971860;28;20197;-70
2022/09/11 02:48:14;;;;;;;0.97;0.87;;;20.60;77.30;;;;;;4958024;28;20244;-70
2022/09/11 02:50:47;;;;;;;1.57;1.00;;;20.60;77.70;;;;;;4988603;28;20601;-70
2022/09/11 02:53:26;;;;;;;4.13;1.10;;;20.60;77.90;;;;;;4989274;28;20216;-70
2022/09/11 02:56:10;;;;;;;1.50;1.03;;;20.60;77.80;;;;;;4978549;28;20763;-70
2022/09/11 02:58:58;;;;;;;2.80;1.23;;;20.60;78.00;;;;;;4969686;28;20235;-70
2022/09/11 03:01:30;;;;;;;4.10;1.00;;;20.50;78.30;;;;;;4977400;28;20686;-70
2022/09/11 03:03:58;;;;;;;1.63;1.00;;;20.50;78.40;;;;;;4994365;28;20275;-70
2022/09/11 03:06:26;;;;;;;1.10;1.00;;;20.50;78.50;;;;;;4979244;28;20213;-70
2022/09/11 03:08:54;;;;;;;1.37;1.07;;;20.50;78.60;;;;;;4991230;28;20235;-70
2022/09/11 03:11:21;;;;;;;2.50;1.20;;;20.50;78.70;;;;;;4990642;28;20306;-70
2022/09/11 03:13:49;;;;;;;1.87;1.10;;;20.50;78.70;;;;;;4989391;28;20288;-70
2022/09/11 03:16:17;;;;;;;2.40;0.90;;;20.50;78.80;;;;;;4978974;28;20214;-70
2022/09/11 03:18:44;;;;;;;2.17;0.90;;;20.40;78.70;;;;;;4991463;28;20246;-70
2022/09/11 03:21:11;;;;;;;2.60;1.20;;;20.50;78.60;;;;;;4955985;28;20275;-70
2022/09/11 03:23:38;;;;;;;1.43;0.90;;;20.40;78.40;;;;;;4986538;28;20298;-70
2022/09/11 03:26:06;;;;;;;2.77;0.80;;;20.40;78.10;;;;;;4969839;28;20223;-70
2022/09/11 03:28:33;;;;;;;5.20;1.20;;;20.40;78.20;;;;;;4968825;28;20665;-70
2022/09/11 03:31:06;;;;;;;1.23;0.90;;;20.30;78.40;;;;;;4995156;28;20200;-70
2022/09/11 03:33:34;;;;;;;2.00;1.30;;;20.30;78.80;;;;;;4975750;28;20610;-70
2022/09/11 03:36:02;;;;;;;1.47;0.90;;;20.30;79.10;;;;;;4973003;28;20568;-70
2022/09/11 03:38:29;;;;;;;1.40;1.20;;;20.30;79.10;;;;;;4977171;28;20207;-70
2022/09/11 03:40:57;;;;;;;2.87;1.10;;;20.30;79.30;;;;;;4963612;28;20558;-70
2022/09/11 03:43:24;;;;;;;1.27;0.90;;;20.40;79.60;;;;;;4972424;28;20216;-70
2022/09/11 03:45:51;;;;;;;14.83;1.30;;;20.40;79.80;;;;;;4991232;28;20211;-70
2022/09/11 03:48:18;;;;;;;2.37;0.90;;;20.40;79.90;;;;;;4956432;28;20223;-70
2022/09/11 03:50:46;;;;;;;0.93;0.80;;;20.40;79.80;;;;;;4977267;28;20215;-70
2022/09/11 03:53:14;;;;;;;3.07;1.23;;;20.40;79.60;;;;;;4988338;28;20196;-70
2022/09/11 03:55:43;;;;;;;1.27;0.77;;;20.40;79.40;;;;;;4987687;28;20239;-70
2022/09/11 03:58:11;;;;;;;1.97;0.80;;;20.50;79.10;;;;;;4971709;28;20306;-70
2022/09/11 04:00:42;;;;;;;1.03;0.93;;;20.50;79.10;;;;;;4976212;28;20231;-70
2022/09/11 04:03:11;;;;;;;1.17;0.93;;;20.60;79.50;;;;;;4992591;28;20212;-70
2022/09/11 04:05:45;;;;;;;3.13;0.70;;;20.60;79.90;;;;;;4974381;28;20210;-70
2022/09/11 04:08:13;;;;;;;1.23;0.80;;;20.60;80.00;;;;;;4989967;28;20484;-70
2022/09/11 04:10:43;;;;;;;2.50;0.80;;;20.70;80.00;;;;;;4987368;28;20212;-70
2022/09/11 04:13:10;;;;;;;2.73;1.20;;;20.70;80.00;;;;;;4976654;28;20224;-70
2022/09/11 04:15:37;;;;;;;2.07;1.00;;;20.70;79.70;;;;;;4975612;28;20212;-70
2022/09/11 04:18:06;;;;;;;2.83;0.80;;;20.70;79.60;;;;;;4987538;28;20213;-70
2022/09/11 04:20:37;;;;;;;1.03;0.97;;;20.70;79.40;;;;;;4977189;28;20657;-70
2022/09/11 04:23:05;;;;;;;2.13;0.80;;;20.80;79.00;;;;;;4977831;28;20295;-70
2022/09/11 04:25:33;;;;;;;2.30;0.80;;;20.80;78.40;;;;;;4977448;28;20215;-70
2022/09/11 04:28:02;;;;;;;3.47;0.80;;;20.80;78.50;;;;;;4994466;28;20684;-70
2022/09/11 04:30:30;;;;;;;1.43;0.80;;;20.80;78.00;;;;;;4991133;28;20702;-70
2022/09/11 04:32:57;;;;;;;1.43;0.80;;;20.80;77.40;;;;;;4968003;28;20203;-71
2022/09/11 04:35:25;;;;;;;1.40;1.00;;;20.80;77.60;;;;;;4973745;28;20222;-70
2022/09/11 04:37:55;;;;;;;2.83;0.97;;;20.80;77.70;;;;;;4975714;28;20232;-70
2022/09/11 04:40:22;;;;;;;0.70;0.70;;;20.80;77.80;;;;;;4993028;28;20661;-70
2022/09/11 04:42:49;;;;;;;0.80;0.60;;;20.80;77.90;;;;;;4976203;28;20200;-70
2022/09/11 04:45:18;;;;;;;3.07;1.03;;;20.80;77.10;;;;;;4976876;28;20540;-70
2022/09/11 04:47:45;;;;;;;1.37;0.50;;;20.90;77.30;;;;;;4988286;28;20230;-70
2022/09/11 04:50:12;;;;;;;1.20;0.77;;;20.80;77.60;;;;;;4982021;28;20215;-70
2022/09/11 04:52:43;;;;;;;0.87;0.60;;;20.90;78.00;;;;;;4989009;28;20312;-70
2022/09/11 04:55:11;;;;;;;2.93;0.80;;;20.80;77.90;;;;;;4970468;28;20263;-70
2022/09/11 04:57:38;;;;;;;3.33;0.83;;;20.80;77.90;;;;;;4972191;28;20262;-70
2022/09/11 05:00:06;;;;;;;4.53;0.80;;;20.90;78.10;;;;;;4984088;28;20201;-70
2022/09/11 05:02:35;;;;;;;3.33;0.97;;;20.80;78.20;;;;;;4971594;28;20246;-70
2022/09/11 05:05:03;;;;;;;0.90;0.67;;;20.80;78.40;;;;;;4972916;28;20216;-70
2022/09/11 05:07:30;;;;;;;0.67;0.60;;;20.90;78.60;;;;;;4983418;28;20279;-70
2022/09/11 05:10:00;;;;;;;1.23;0.63;;;20.90;78.80;;;;;;4966251;28;20642;-70
2022/09/11 05:12:30;;;;;;;0.93;0.70;;;20.90;78.80;;;;;;4986000;28;20539;-70
2022/09/11 05:14:58;;;;;;;1.17;0.70;;;20.90;78.70;;;;;;4962709;28;20276;-70
2022/09/11 05:17:25;;;;;;;2.20;0.70;;;20.90;78.60;;;;;;4982185;28;20236;-70
2022/09/11 05:19:52;;;;;;;3.80;0.93;;;20.90;78.40;;;;;;4967543;28;20241;-70
2022/09/11 05:22:22;;;;;;;2.57;0.80;;;20.90;78.40;;;;;;4972926;28;20224;-70
2022/09/11 05:24:53;;;;;;;0.70;0.70;;;20.90;78.20;;;;;;4970443;28;20243;-71
2022/09/11 05:27:21;;;;;;;4.13;0.80;;;20.90;78.00;;;;;;4969696;28;20248;-70
2022/09/11 05:29:48;;;;;;;2.30;0.93;;;20.90;77.90;;;;;;4966699;28;20225;-70
2022/09/11 05:32:15;;;;;;;2.53;0.83;;;20.90;77.80;;;;;;4986551;28;20216;-70
2022/09/11 05:34:43;;;;;;;1.90;0.80;;;20.90;77.80;;;;;;4972568;28;20630;-70
2022/09/11 05:37:13;;;;;;;0.73;0.70;;;20.90;77.90;;;;;;4986425;28;20417;-70
2022/09/11 05:39:44;;;;;;;2.33;0.90;;;20.90;78.10;;;;;;4982016;28;20220;-70
2022/09/11 05:42:14;;;;;;;1.57;0.80;;;20.90;78.20;;;;;;4969718;28;20224;-70
2022/09/11 05:44:46;;;;;;;1.67;1.10;;;20.90;78.20;;;;;;4967433;28;20245;-70
2022/09/11 05:47:14;;;;;;;1.30;0.93;;;20.90;78.00;;;;;;4969016;28;20228;-70
2022/09/11 05:49:43;;;;;;;1.37;0.70;;;21.00;78.10;;;;;;4966772;28;20247;-70
2022/09/11 05:52:10;;;;;;;2.23;0.60;;;21.00;78.40;;;;;;4970687;28;20296;-70
2022/09/11 05:54:37;;;;;;;3.27;0.87;;;21.10;78.60;;;;;;4970356;28;20674;-70
2022/09/11 05:57:05;;;;;;;1.20;1.00;;;21.10;78.40;;;;;;4965151;28;20283;-70
2022/09/11 05:59:36;;;;;;;1.90;1.03;;;21.20;78.30;;;;;;4987111;28;20209;-70
2022/09/11 06:02:03;;;;;;;1.17;1.00;;;21.30;78.00;;;;;;4969869;28;20216;-69
2022/09/11 06:04:39;;;;;;;1.17;1.03;;;21.30;77.90;;;;;;4967540;28;20560;-69
2022/09/11 06:07:07;;;;;;;1.67;1.00;;;21.40;77.60;;;;;;4972395;28;20237;-69
2022/09/11 06:09:37;;;;;;;1.30;0.90;;;21.60;77.00;;;;;;4968614;28;20228;-70
2022/09/11 06:12:04;;;;;;;2.03;0.90;;;21.60;76.50;;;;;;4962815;28;20224;-69
2022/09/11 06:14:31;;;;;;;1.70;1.10;;;21.80;76.30;;;;;;4971388;28;20220;-69
2022/09/11 06:17:00;;;;;;;1.70;1.07;;;21.90;75.90;;;;;;4971047;28;20650;-69
2022/09/11 06:19:30;;;;;;;3.00;0.90;;;22.00;75.60;;;;;;4962924;28;20223;-69
2022/09/11 06:21:57;;;;;;;1.07;0.80;;;22.00;75.40;;;;;;4970560;28;20296;-69
2022/09/11 06:24:35;;;;;;;1.37;1.10;;;22.00;75.60;;;;;;4982204;28;20284;-69
2022/09/11 06:27:04;;;;;;;2.20;1.17;;;22.00;75.70;;;;;;4968804;28;20551;-69
2022/09/11 06:29:33;;;;;;;3.27;1.20;;;22.00;75.80;;;;;;4968015;28;20249;-69
2022/09/11 06:32:02;;;;;;;2.90;0.97;;;22.00;75.60;;;;;;4954244;28;20669;-69
2022/09/11 06:34:31;;;;;;;2.20;1.07;;;22.00;74.80;;;;;;4987254;28;20301;-69
2022/09/11 06:37:03;;;;;;;1.50;0.80;;;22.00;75.00;;;;;;4971608;28;20205;-69
2022/09/11 06:39:30;;;;;;;2.20;1.50;;;21.90;74.60;;;;;;4956921;28;20206;-70
2022/09/11 06:41:58;;;;;;;2.57;1.20;;;21.80;75.00;;;;;;4985067;28;20326;-70
2022/09/11 06:44:30;;;;;;;2.03;1.00;;;21.80;75.80;;;;;;4958415;28;20292;-69
2022/09/11 06:46:59;;;;;;;3.30;1.03;;;21.80;76.50;;;;;;4973721;28;20639;-69
2022/09/11 06:49:26;;;;;;;0.80;0.80;;;21.80;76.90;;;;;;4969185;28;20306;-69
2022/09/11 06:52:12;;;;;;;1.17;0.90;;;21.80;77.00;;;;;;4970718;28;20544;-69
2022/09/11 06:54:46;;;;;;;5.23;1.27;;;21.80;76.80;;;;;;4970848;28;20235;-69
2022/09/11 06:57:15;;;;;;;1.47;1.10;;;21.80;76.30;;;;;;4982848;28;20215;-69
2022/09/11 06:59:42;;;;;;;2.20;0.90;;;21.80;76.70;;;;;;4970797;28;20274;-69
2022/09/11 07:02:09;;;;;;;2.03;1.20;;;21.80;77.10;;;;;;4980665;28;20202;-69
2022/09/11 07:04:37;;;;;;;2.27;1.17;;;21.80;77.60;;;;;;4973228;28;20213;-69
2022/09/11 07:07:05;;;;;;;1.93;1.43;;;21.80;77.90;;;;;;4971611;28;20209;-70
2022/09/11 07:09:34;;;;;;;2.67;1.30;;;21.90;78.70;;;;;;4967100;28;20704;-69
2022/09/11 07:12:01;;;;;;;8.17;1.00;;;22.00;78.70;;;;;;4984853;28;20538;-70
2022/09/11 07:14:30;;;;;;;4.23;1.50;;;22.00;78.40;;;;;;4975823;28;20425;-70
2022/09/11 07:17:06;;;;;;;2.67;1.20;;;22.00;78.30;;;;;;4973090;28;20201;-70
2022/09/11 07:19:34;;;;;;;5.33;1.57;;;22.00;78.40;;;;;;4973586;28;20212;-70
2022/09/11 07:22:02;;;;;;;2.73;1.50;;;22.10;78.30;;;;;;4971562;28;20227;-70
2022/09/11 07:24:31;;;;;;;5.33;1.50;;;22.20;78.00;;;;;;4973996;28;20228;-69
2022/09/11 07:26:59;;;;;;;4.40;1.60;;;22.20;77.90;;;;;;4984899;28;20216;-69
2022/09/11 07:29:33;;;;;;;4.20;1.73;;;22.20;78.10;;;;;;4970843;28;20240;-69
2022/09/11 07:32:01;;;;;;;6.23;1.57;;;22.20;78.20;;;;;;4972214;28;20212;-69
2022/09/11 07:34:28;;;;;;;2.83;1.23;;;22.30;78.00;;;;;;4986232;28;20296;-69
2022/09/11 07:36:57;;;;;;;2.07;1.40;;;22.20;77.50;;;;;;4988406;28;20606;-69
2022/09/11 07:39:25;;;;;;;4.93;1.40;;;22.20;77.40;;;;;;4970103;28;20228;-69
2022/09/11 07:41:58;;;;;;;3.23;1.63;;;22.20;77.20;;;;;;4964698;28;20206;-70
2022/09/11 07:44:29;;;;;;;4.93;1.40;;;22.20;77.20;;;;;;4972945;28;20243;-70
2022/09/11 07:46:56;;;;;;;2.93;1.10;;;22.30;77.60;;;;;;4972462;28;20205;-70
2022/09/11 07:49:25;;;;;;;4.47;1.40;;;22.50;77.80;;;;;;4974571;28;20221;-70
2022/09/11 07:51:53;;;;;;;3.10;1.30;;;22.70;77.20;;;;;;4969159;28;20212;-70
2022/09/11 07:54:31;;;;;;;4.10;0.93;;;23.10;76.10;;;;;;4984097;28;20691;-70
2022/09/11 07:56:58;;;;;;;2.47;1.20;;;23.50;74.50;;;;;;4970200;28;20204;-70
2022/09/11 07:59:26;;;;;;;2.00;0.90;;;23.90;72.80;;;;;;4973122;28;20279;-70
2022/09/11 08:01:54;;;;;;;2.20;1.00;;;24.30;70.00;;;;;;4971031;28;20246;-70
2022/09/11 08:04:22;;;;;;;8.87;0.97;;;24.50;68.50;;;;;;4968300;28;20663;-70
2022/09/11 08:06:50;;;;;;;1.67;0.80;;;24.80;67.30;;;;;;4972499;28;20234;-70
2022/09/11 08:09:26;;;;;;;0.60;0.60;;;24.90;65.30;;;;;;4983586;28;20247;-70
2022/09/11 08:11:57;;;;;;;0.83;0.70;;;25.10;64.80;;;;;;4972164;28;20203;-70
2022/09/11 08:14:26;;;;;;;1.10;0.80;;;25.30;63.70;;;;;;4973956;28;20205;-70
2022/09/11 08:16:57;;;;;;;2.57;1.00;;;25.30;63.40;;;;;;4969576;28;20647;-70
2022/09/11 08:19:27;;;;;;;2.87;0.70;;;25.40;63.20;;;;;;4986056;28;20661;-70
2022/09/11 08:21:57;;;;;;;1.40;0.83;;;25.40;62.50;;;;;;4971083;28;20678;-70
2022/09/11 08:24:26;;;;;;;1.07;0.90;;;25.50;61.90;;;;;;4967158;28;20215;-70
2022/09/11 08:26:59;;;;;;;4.00;0.83;;;25.50;61.10;;;;;;4985301;28;20211;-70
2022/09/11 08:29:28;;;;;;;1.53;1.00;;;25.50;61.10;;;;;;4986735;28;20222;-70
2022/09/11 08:31:55;;;;;;;1.87;0.60;;;25.50;61.10;;;;;;4970381;28;20271;-70
2022/09/11 08:34:28;;;;;;;1.10;1.00;;;25.50;60.30;;;;;;4985046;28;20284;-70
2022/09/11 08:36:55;;;;;;;3.73;1.20;;;25.60;60.60;;;;;;4970038;28;20230;-70
2022/09/11 08:39:24;;;;;;;1.43;1.00;;;25.70;60.50;;;;;;4967815;28;20222;-70
2022/09/11 08:42:11;;;;;;;0.80;0.80;;;25.80;60.90;;;;;;4973017;28;20600;-70
2022/09/11 08:44:39;;;;;;;1.23;0.77;;;25.90;59.50;;;;;;4955242;28;20309;-70
2022/09/11 08:47:23;;;;;;;1.70;1.03;;;25.80;59.60;;;;;;4967026;28;20214;-70
2022/09/11 08:50:02;;;;;;;2.40;0.70;;;25.80;59.60;;;;;;4970696;28;20230;-70
2022/09/11 08:52:31;;;;;;;0.87;0.70;;;25.90;60.20;;;;;;4972453;28;20206;-70
2022/09/11 08:54:59;;;;;;;1.43;0.93;;;25.90;60.20;;;;;;4970696;28;20692;-70
2022/09/11 08:57:42;;;;;;;3.60;0.90;;;26.00;60.00;;;;;;4985973;28;20220;-70
2022/09/11 09:00:21;;;;;;;1.20;0.70;;;26.10;57.90;;;;;;4953839;28;20224;-70
2022/09/11 09:03:07;;;;;;;2.03;0.87;;;26.10;58.30;;;;;;4948674;28;20215;-70
2022/09/11 09:06:03;;;;;;;2.37;0.70;;;26.20;59.10;;;;;;4972206;28;20527;-70
2022/09/11 09:08:37;;;;;;;2.10;0.70;;;26.20;57.30;;;;;;4966117;28;20601;-70
2022/09/11 09:11:38;;;;;;;1.00;0.87;;;26.20;57.50;;;;;;4970994;28;20201;-70
2022/09/11 09:14:24;;;;;;;0.70;0.70;;;26.20;57.10;;;;;;4966915;28;20662;-70
2022/09/11 09:16:54;;;;;;;3.00;0.60;;;26.40;56.10;;;;;;4967956;28;20210;-70
2022/09/11 09:20:08;;;;;;;3.00;1.00;;;26.50;55.30;;;;;;4956106;28;20206;-70
2022/09/11 09:22:46;;;;;;;1.67;0.60;;;26.40;55.20;;;;;;4971357;28;20586;-70
2022/09/11 09:25:21;;;;;;;1.70;1.03;;;26.40;56.50;;;;;;4986352;28;20267;-70
2022/09/11 09:28:05;;;;;;;3.50;0.73;;;26.50;55.30;;;;;;4968334;28;20718;-70
2022/09/11 09:31:02;;;;;;;1.10;0.80;;;26.50;56.10;;;;;;4955194;28;20232;-70
2022/09/11 09:33:41;;;;;;;0.70;0.70;;;26.60;57.50;;;;;;4971518;28;20777;-70
2022/09/11 09:36:15;;;;;;;1.00;0.60;;;26.70;55.90;;;;;;4968583;28;20213;-70
2022/09/11 09:38:44;;;;;;;0.83;0.80;;;26.80;55.60;;;;;;4970749;28;20594;-70
2022/09/11 09:41:14;;;;;;;0.60;0.60;;;26.80;55.50;;;;;;4984549;28;20211;-70
2022/09/11 09:43:44;;;;;;;2.40;0.80;;;26.90;55.20;;;;;;4968694;28;20197;-70
2022/09/11 09:46:40;;;;;;;0.77;0.77;;;27.10;55.20;;;;;;4970882;28;20267;-70
2022/09/11 09:49:23;;;;;;;0.60;0.57;;;27.20;54.10;;;;;;4972574;28;20227;-70
2022/09/11 09:51:53;;;;;;;1.53;1.00;;;27.40;54.20;;;;;;4968881;28;20199;-70
2022/09/11 09:54:22;;;;;;;1.77;0.67;;;27.50;54.50;;;;;;4973925;28;20232;-70
2022/09/11 09:56:57;;;;;;;0.60;0.60;;;27.60;53.50;;;;;;4989340;28;20203;-70
2022/09/11 09:59:40;;;;;;;0.83;0.73;;;27.70;52.40;;;;;;4987143;28;20203;-70
2022/09/11 10:02:08;;;;;;;0.53;0.50;;;27.80;51.80;;;;;;4991423;28;20200;-70
2022/09/11 10:04:35;;;;;;;1.13;0.73;;;27.90;52.20;;;;;;4990425;28;20231;-70
2022/09/11 10:07:10;;;;;;;1.73;0.63;;;27.90;52.00;;;;;;4988391;28;20239;-70
2022/09/11 10:09:45;;;;;;;0.63;0.63;;;28.00;52.20;;;;;;4988531;28;20247;-70
2022/09/11 10:12:25;;;;;;;0.37;0.37;;;28.00;51.40;;;;;;4970488;28;20640;-70
2022/09/11 10:14:58;;;;;;;0.83;0.50;;;28.00;52.10;;;;;;4975056;28;20242;-70
2022/09/11 10:17:29;;;;;;;0.40;0.40;;;28.10;52.20;;;;;;4989670;28;20207;-70
2022/09/11 10:20:25;;;;;;;2.10;0.70;;;28.10;51.40;;;;;;4969549;28;20255;-70
2022/09/11 10:22:53;;;;;;;3.07;0.90;;;28.10;52.10;;;;;;4988286;28;20835;-70
2022/09/11 10:25:26;;;;;;;1.37;0.70;;;28.10;52.10;;;;;;4975330;28;20216;-70
2022/09/11 10:28:13;;;;;;;2.17;0.70;;;28.20;51.60;;;;;;4990684;28;20577;-70
2022/09/11 10:30:54;;;;;;;2.20;0.87;;;28.30;50.80;;;;;;4988768;28;20266;-70
2022/09/11 10:33:29;;;;;;;2.27;0.70;;;28.20;51.60;;;;;;4987474;28;20227;-70
2022/09/11 10:35:58;;;;;;;1.60;0.70;;;28.20;51.50;;;;;;4971168;28;20232;-71
2022/09/11 10:38:44;;;;;;;1.47;0.60;;;28.20;51.40;;;;;;4986087;28;20200;-71
2022/09/11 10:41:11;;;;;;;0.70;0.70;;;28.20;51.60;;;;;;4971409;28;20212;-71
2022/09/11 10:43:47;;;;;;;0.80;0.80;;;28.40;52.00;;;;;;4988513;28;20283;-71
2022/09/11 10:46:17;;;;;;;0.80;0.63;;;28.50;51.80;;;;;;4988436;28;20216;-71
2022/09/11 10:49:02;;;;;;;2.50;0.90;;;28.60;52.00;;;;;;4987107;28;20193;-70
2022/09/11 10:51:32;;;;;;;0.70;0.70;;;28.70;51.40;;;;;;4983964;28;20212;-70
2022/09/11 10:54:28;;;;;;;1.63;0.90;;;28.70;51.70;;;;;;4968871;28;20229;-70
2022/09/11 10:57:28;;;;;;;1.50;0.93;;;28.80;51.70;;;;;;4991884;28;20474;-70
2022/09/11 11:00:07;;;;;;;1.00;0.70;;;28.90;49.90;;;;;;4985457;28;20275;-70
2022/09/11 11:02:38;;;;;;;1.17;1.07;;;29.00;49.80;;;;;;4974152;28;20208;-70
2022/09/11 11:05:37;;;;;;;2.13;0.90;;;29.00;50.40;;;;;;4981821;28;20213;-70
2022/09/11 11:08:20;;;;;;;0.93;0.70;;;29.00;49.80;;;;;;4987268;28;20201;-70
2022/09/11 11:11:06;;;;;;;0.83;0.83;;;29.10;49.50;;;;;;4971157;28;20291;-70
2022/09/11 11:14:12;;;;;;;0.70;0.70;;;29.10;49.80;;;;;;4988604;28;20579;-70
2022/09/11 11:17:01;;;;;;;0.87;0.87;;;29.10;49.50;;;;;;4971500;28;20296;-70
2022/09/11 11:19:50;;;;;;;1.27;0.70;;;29.00;47.90;;;;;;4991226;28;20207;-70
2022/09/11 11:22:44;;;;;;;1.30;0.77;;;28.90;48.40;;;;;;4989759;28;20513;-70
2022/09/11 11:25:49;;;;;;;1.27;0.90;;;28.90;49.10;;;;;;4993362;28;20237;-71
2022/09/11 11:28:42;;;;;;;0.67;0.67;;;28.90;49.30;;;;;;4865039;29;20212;-71
2022/09/11 11:31:51;;;;;;;2.87;1.03;;;28.90;49.70;;;;;;4976212;28;20240;-71
2022/09/11 11:34:27;;;;;;;2.73;1.20;;;29.00;49.40;;;;;;4987571;28;20240;-71
2022/09/11 11:37:28;;;;;;;1.43;1.10;;;29.00;49.40;;;;;;4973109;28;20569;-71
2022/09/11 11:40:22;;;;;;;1.33;1.10;;;29.00;49.70;;;;;;4971678;28;20252;-71
2022/09/11 11:42:55;;;;;;;2.00;1.00;;;29.00;49.70;;;;;;4989591;28;20239;-71
2022/09/11 11:45:30;;;;;;;1.73;1.10;;;29.00;50.30;;;;;;4989683;28;20204;-71
2022/09/11 11:48:12;;;;;;;1.03;0.67;;;29.00;50.20;;;;;;4989905;28;20224;-71
2022/09/11 11:50:43;;;;;;;2.63;1.00;;;29.00;49.60;;;;;;4994061;28;20221;-71
2022/09/11 11:53:35;;;;;;;2.60;0.97;;;29.10;49.50;;;;;;4975973;28;20227;-71
2022/09/11 11:56:24;;;;;;;1.40;0.90;;;29.20;49.50;;;;;;4988756;28;20760;-71
2022/09/11 11:58:54;;;;;;;2.07;0.90;;;29.30;49.20;;;;;;4988516;28;20345;-71
2022/09/11 12:01:36;;;;;;;0.80;0.80;;;29.50;49.70;;;;;;4989261;28;20259;-71
2022/09/11 12:04:18;;;;;;;1.27;0.93;;;29.60;49.10;;;;;;4976865;28;20235;-71
2022/09/11 12:06:45;;;;;;;1.33;0.90;;;29.70;48.60;;;;;;4973752;28;20643;-71
2022/09/11 12:09:16;;;;;;;1.57;0.90;;;29.70;49.00;;;;;;4991420;28;20270;-71
2022/09/11 12:11:48;;;;;;;2.20;1.00;;;29.70;49.80;;;;;;4988921;28;20197;-70
2022/09/11 12:14:49;;;;;;;0.77;0.77;;;29.80;49.20;;;;;;4970655;28;20819;-70
2022/09/11 12:17:26;;;;;;;2.03;1.10;;;29.90;49.70;;;;;;4991111;28;20514;-70
2022/09/11 12:20:08;;;;;;;4.73;1.27;;;30.00;48.80;;;;;;4987978;28;20232;-70
2022/09/11 12:22:43;;;;;;;1.40;0.90;;;30.10;49.40;;;;;;4982223;28;20204;-69
2022/09/11 12:25:22;;;;;;;1.03;0.80;;;30.10;47.00;;;;;;4970547;28;20716;-70
2022/09/11 12:27:52;;;;;;;1.27;0.80;;;30.00;47.80;;;;;;4976874;28;20704;-70
2022/09/11 12:30:23;;;;;;;1.70;1.00;;;29.90;48.10;;;;;;4973148;28;20236;-70
2022/09/11 12:32:53;;;;;;;1.50;0.77;;;29.90;48.40;;;;;;4991352;28;20254;-70
2022/09/11 12:35:44;;;;;;;1.40;1.00;;;29.90;48.80;;;;;;4976658;28;20443;-71
2022/09/11 12:38:43;;;;;;;2.03;0.83;;;29.90;48.60;;;;;;4972146;28;20205;-71
2022/09/11 12:41:24;;;;;;;3.20;1.03;;;29.80;48.30;;;;;;4985123;28;20243;-71
2022/09/11 12:43:53;;;;;;;1.17;0.90;;;29.70;48.10;;;;;;4959868;28;20620;-71
2022/09/11 12:46:20;;;;;;;2.30;1.10;;;29.70;48.10;;;;;;4990227;28;20299;-71
2022/09/11 12:49:08;;;;;;;2.50;1.17;;;29.70;49.30;;;;;;4991405;28;20920;-71
2022/09/11 12:51:55;;;;;;;1.77;1.10;;;29.60;49.20;;;;;;4987617;28;20258;-71
2022/09/11 12:54:30;;;;;;;2.80;1.10;;;29.60;49.30;;;;;;4989585;28;20233;-71
2022/09/11 12:57:04;;;;;;;1.30;1.20;;;29.60;47.80;;;;;;4987417;28;20651;-71
2022/09/11 12:59:34;;;;;;;3.60;1.30;;;29.60;48.60;;;;;;4990581;28;20260;-71
2022/09/11 13:02:02;;;;;;;2.77;1.20;;;29.60;48.70;;;;;;4976218;28;20247;-71
2022/09/11 13:04:31;;;;;;;2.13;1.20;;;29.70;48.80;;;;;;4987711;28;20534;-71
2022/09/11 13:07:06;;;;;;;4.27;1.37;;;29.80;48.70;;;;;;4990625;28;20272;-71
2022/09/11 13:09:47;;;;;;;2.27;1.30;;;29.80;48.20;;;;;;4966576;28;20244;-71
2022/09/11 13:12:20;;;;;;;2.47;1.17;;;29.70;47.60;;;;;;4990415;28;20262;-71
2022/09/11 13:14:55;;;;;;;4.17;1.87;;;29.60;47.30;;;;;;4973894;28;20662;-71
2022/09/11 13:17:29;;;;;;;1.60;1.03;;;29.50;47.90;;;;;;4988647;28;20643;-71
2022/09/11 13:20:20;;;;;;;3.20;0.93;;;29.50;48.70;;;;;;4990663;28;20293;-71
2022/09/11 13:22:50;;;;;;;3.30;1.30;;;29.50;49.30;;;;;;4985844;28;20209;-71
2022/09/11 13:25:26;;;;;;;1.33;1.20;;;29.50;48.20;;;;;;4991365;28;20212;-71